createdAt,value
2019-06-08T00:04:09.313Z,16.20
2019-06-08T00:09:15.127Z,16.30
2019-06-08T00:14:21.477Z,16.20
2019-06-08T00:19:27.135Z,16.20
2019-06-08T00:24:33.826Z,16.10
2019-06-08T00:29:38.927Z,16.10
2019-06-08T00:34:44.181Z,16.20
2019-06-08T00:39:48.955Z,16.10
2019-06-08T00:44:56.685Z,16.10
2019-06-08T00:50:02.158Z,16.10
2019-06-08T00:55:07.576Z,16.10
2019-06-08T01:00:12.601Z,16.10
2019-06-08T01:05:19.750Z,16.10
2019-06-08T01:10:25.930Z,16.10
2019-06-08T01:15:34.257Z,16.00
2019-06-08T01:20:38.155Z,15.80
2019-06-08T01:25:43.418Z,16.00
2019-06-08T01:30:48.705Z,15.90
2019-06-08T01:35:53.803Z,15.80
2019-06-08T01:40:58.671Z,15.80
2019-06-08T01:46:03.937Z,15.90
2019-06-08T01:51:09.187Z,15.90
2019-06-08T01:56:13.304Z,15.90
2019-06-08T02:01:16.828Z,16.00
2019-06-08T02:06:21.038Z,15.90
2019-06-08T02:11:26.608Z,15.70
2019-06-08T02:16:31.338Z,15.90
2019-06-08T02:21:35.517Z,15.90
2019-06-08T02:26:39.941Z,15.90
2019-06-08T02:31:47.969Z,15.90
2019-06-08T02:36:50.489Z,15.90
2019-06-08T02:41:55.109Z,15.90
2019-06-08T02:46:59.544Z,16.00
2019-06-08T02:52:04.143Z,15.80
2019-06-08T02:57:10.182Z,15.80
2019-06-08T03:02:17.200Z,15.70
2019-06-08T03:07:23.018Z,15.90
2019-06-08T03:12:28.217Z,15.70
2019-06-08T03:17:33.534Z,15.80
2019-06-08T03:22:40.952Z,15.70
2019-06-08T03:27:45.758Z,15.80
2019-06-08T03:32:56.487Z,15.80
2019-06-08T03:37:58.747Z,15.60
2019-06-08T03:43:05.133Z,15.50
2019-06-08T03:48:10.528Z,15.40
2019-06-08T03:53:15.917Z,15.50
2019-06-08T03:58:21.148Z,15.50
2019-06-08T04:03:26.163Z,15.40
2019-06-08T04:08:44.936Z,15.40
2019-06-08T04:13:50.139Z,15.30
2019-06-08T04:18:55.353Z,15.40
2019-06-08T04:24:00.407Z,15.30
2019-06-08T04:29:05.797Z,15.10
2019-06-08T04:34:11.688Z,15.20
2019-06-08T04:39:16.724Z,15.20
2019-06-08T04:44:21.823Z,15.20
2019-06-08T04:49:26.758Z,15.10
2019-06-08T04:54:32.513Z,15.20
2019-06-08T04:59:39.004Z,15.30
2019-06-08T05:04:45.335Z,15.30
2019-06-08T05:09:51.230Z,15.40
2019-06-08T05:14:56.644Z,15.50
2019-06-08T05:20:02.274Z,15.40
2019-06-08T05:25:09.191Z,15.30
2019-06-08T05:30:16.685Z,15.30
2019-06-08T05:35:22.173Z,15.40
2019-06-08T05:40:25.594Z,15.40
2019-06-08T05:45:30.786Z,15.50
2019-06-08T05:50:35.964Z,15.60
2019-06-08T05:55:41.712Z,15.60
2019-06-08T06:00:48.341Z,15.60
2019-06-08T06:05:53.886Z,15.80
2019-06-08T06:11:00.417Z,15.70
2019-06-08T06:16:05.447Z,15.80
2019-06-08T06:21:12.014Z,15.80
2019-06-08T06:26:15.923Z,15.90
2019-06-08T06:31:20.818Z,15.80
2019-06-08T06:36:25.356Z,15.90
2019-06-08T06:41:30.243Z,16.00
2019-06-08T06:46:34.633Z,16.10
2019-06-08T06:51:38.985Z,16.20
2019-06-08T06:56:45.258Z,16.20
2019-06-08T07:01:55.261Z,16.10
2019-06-08T07:06:56.584Z,16.30
2019-06-08T07:12:00.742Z,16.20
2019-06-08T07:17:05.109Z,16.30
2019-06-08T07:22:10.916Z,16.20
2019-06-08T07:27:15.061Z,16.30
2019-06-08T07:32:19.644Z,16.40
2019-06-08T07:37:25.974Z,16.40
2019-06-08T07:42:31.581Z,16.30
2019-06-08T07:47:37.249Z,16.40
2019-06-08T07:52:42.621Z,16.50
2019-06-08T07:57:49.214Z,16.50
2019-06-08T08:02:56.294Z,16.50
2019-06-08T08:08:01.662Z,16.60
2019-06-08T08:13:07.579Z,16.70
2019-06-08T08:18:13.233Z,17.10
2019-06-08T08:23:18.409Z,17.70
2019-06-08T08:28:24.495Z,17.70
2019-06-08T08:33:29.931Z,17.80
2019-06-08T08:38:38.151Z,17.40
2019-06-08T08:43:43.052Z,17.50
2019-06-08T08:48:48.666Z,17.50
2019-06-08T08:53:58.490Z,17.60
2019-06-08T08:59:03.060Z,17.60
2019-06-08T09:04:08.897Z,17.50
2019-06-08T09:09:15.050Z,17.60
2019-06-08T09:14:21.651Z,17.50
2019-06-08T09:19:28.110Z,18.00
2019-06-08T09:24:33.426Z,18.10
2019-06-08T09:29:39.943Z,18.30
2019-06-08T09:34:54.626Z,18.50
2019-06-08T09:40:01.841Z,18.90
2019-06-08T09:45:09.334Z,19.10
2019-06-08T09:50:18.274Z,19.10
2019-06-08T09:55:22.446Z,19.30
2019-06-08T10:00:29.262Z,19.60
2019-06-08T10:05:34.980Z,20.10
2019-06-08T10:10:40.428Z,20.50
2019-06-08T10:15:51.147Z,20.80
2019-06-08T10:20:54.765Z,20.70
2019-06-08T10:26:01.322Z,20.20
2019-06-08T10:31:06.915Z,20.10
2019-06-08T10:36:12.788Z,20.10
2019-06-08T10:41:21.541Z,20.00
2019-06-08T10:46:23.103Z,20.00
2019-06-08T10:51:26.771Z,20.30
2019-06-08T10:56:31.156Z,20.40
2019-06-08T11:01:38.407Z,20.20
2019-06-08T11:06:42.471Z,20.40
2019-06-08T11:11:48.067Z,21.00
2019-06-08T11:16:53.195Z,20.60
2019-06-08T11:22:02.684Z,20.80
2019-06-08T11:27:08.228Z,21.30
2019-06-08T11:32:12.554Z,21.20
2019-06-08T11:37:20.762Z,21.20
2019-06-08T11:42:27.831Z,21.20
2019-06-08T11:47:31.897Z,21.20
2019-06-08T11:52:38.266Z,21.60
2019-06-08T11:57:44.115Z,21.90
2019-06-08T12:02:49.420Z,22.10
2019-06-08T12:07:54.115Z,22.00
2019-06-08T12:12:59.893Z,21.80
2019-06-08T12:18:09.179Z,22.00
2019-06-08T12:23:14.155Z,22.10
2019-06-08T12:28:20.108Z,22.20
2019-06-08T12:33:25.398Z,22.40
2019-06-08T12:38:34.273Z,22.50
2019-06-08T12:43:38.561Z,22.80
2019-06-08T12:48:44.131Z,22.50
2019-06-08T12:53:50.395Z,22.80
2019-06-08T12:58:57.751Z,23.10
2019-06-08T13:04:03.925Z,23.10
2019-06-08T13:09:11.430Z,22.90
2019-06-08T13:14:19.026Z,22.70
2019-06-08T13:19:27.509Z,22.90
2019-06-08T13:24:32.517Z,22.90
2019-06-08T13:29:37.736Z,22.90
2019-06-08T13:34:43.078Z,22.80
2019-06-08T13:39:48.791Z,22.80
2019-06-08T13:44:54.561Z,23.30
2019-06-08T13:50:00.131Z,23.10
2019-06-08T13:55:05.959Z,22.70
2019-06-08T14:00:13.401Z,22.20
2019-06-08T14:05:30.806Z,22.00
2019-06-08T14:10:38.566Z,22.00
2019-06-08T14:15:44.240Z,22.30
2019-06-08T14:20:48.349Z,22.40
2019-06-08T14:25:56.672Z,22.30
2019-06-08T14:30:59.363Z,22.50
2019-06-08T14:36:03.493Z,22.20
2019-06-08T14:41:08.129Z,22.30
2019-06-08T14:46:11.897Z,22.20
2019-06-08T14:51:18.727Z,22.00
2019-06-08T14:56:24.928Z,21.80
2019-06-08T15:01:31.476Z,22.00
2019-06-08T15:06:38.065Z,22.30
2019-06-08T15:11:42.441Z,22.20
2019-06-08T15:16:49.334Z,22.00
2019-06-08T15:21:56.301Z,22.20
2019-06-08T15:27:00.884Z,22.60
2019-06-08T15:32:08.171Z,22.70
2019-06-08T15:37:13.945Z,22.40
2019-06-08T15:42:19.352Z,22.60
2019-06-08T15:47:26.168Z,23.00
2019-06-08T15:52:34.212Z,23.30
2019-06-08T15:57:41.532Z,23.30
2019-06-08T16:02:47.145Z,23.30
2019-06-08T16:07:53.208Z,23.40
2019-06-08T16:12:58.859Z,23.40
2019-06-08T16:18:04.171Z,23.10
2019-06-08T16:23:10.848Z,23.20
2019-06-08T16:28:16.008Z,23.30
2019-06-08T16:33:21.243Z,23.30
2019-06-08T16:38:27.839Z,23.40
2019-06-08T16:43:33.072Z,23.60
2019-06-08T16:48:39.529Z,23.40
2019-06-08T16:53:45.377Z,23.40
2019-06-08T16:58:50.428Z,23.10
2019-06-08T17:03:56.230Z,22.90
2019-06-08T17:09:01.594Z,22.80
2019-06-08T17:14:08.933Z,22.40
2019-06-08T17:19:13.957Z,22.40
2019-06-08T17:24:20.655Z,22.30
2019-06-08T17:29:25.883Z,22.00
2019-06-08T17:34:31.752Z,21.70
2019-06-08T17:39:37.929Z,21.80
2019-06-08T17:44:44.841Z,21.50
2019-06-08T17:49:50.478Z,21.50
2019-06-08T17:54:55.885Z,21.30
2019-06-08T18:00:01.344Z,21.30
2019-06-08T18:05:07.171Z,21.30
2019-06-08T18:10:13.167Z,21.30
2019-06-08T18:15:18.362Z,21.20
2019-06-08T18:20:23.842Z,21.00
2019-06-08T18:25:30.751Z,21.00
2019-06-08T18:30:39.279Z,21.00
2019-06-08T18:35:44.507Z,20.80
2019-06-08T18:40:49.928Z,20.70
2019-06-08T18:45:57.560Z,20.60
2019-06-08T18:51:04.047Z,20.60
2019-06-08T18:56:09.121Z,20.30
2019-06-08T19:01:17.825Z,20.30
2019-06-08T19:06:21.383Z,20.30
2019-06-08T19:11:28.430Z,20.20
2019-06-08T19:16:32.675Z,20.10
2019-06-08T19:21:38.067Z,20.00
2019-06-08T19:26:45.515Z,19.70
2019-06-08T19:31:51.393Z,19.50
2019-06-08T19:36:57.313Z,19.40
2019-06-08T19:42:03.288Z,19.20
2019-06-08T19:47:08.957Z,19.10
2019-06-08T19:52:14.714Z,18.90
2019-06-08T19:57:20.171Z,18.80
2019-06-08T20:02:27.137Z,18.50
2019-06-08T20:07:31.798Z,18.50
2019-06-08T20:12:37.176Z,18.20
2019-06-08T20:17:43.542Z,18.10
2019-06-08T20:22:51.780Z,17.90
2019-06-08T20:27:58.740Z,17.80
2019-06-08T20:33:04.815Z,17.80
2019-06-08T20:38:12.936Z,17.70
2019-06-08T20:43:20.612Z,17.60
2019-06-08T20:48:27.569Z,17.60
2019-06-08T20:53:33.134Z,17.40
2019-06-08T20:58:38.522Z,17.10
2019-06-08T21:03:44.084Z,17.10
2019-06-08T21:08:51.488Z,16.90
2019-06-08T21:13:57.294Z,17.00
2019-06-08T21:19:03.229Z,16.70
2019-06-08T21:24:10.538Z,16.70
2019-06-08T21:29:17.596Z,16.70
2019-06-08T21:34:23.773Z,16.70
2019-06-08T21:39:28.935Z,16.60
2019-06-08T21:44:37.093Z,16.50
2019-06-08T21:49:47.526Z,16.30
2019-06-08T21:54:54.260Z,16.10
2019-06-08T22:00:21.631Z,16.20
2019-06-08T22:05:09.900Z,16.00
2019-06-08T22:10:17.800Z,15.80
2019-06-08T22:15:23.046Z,15.80
2019-06-08T22:20:28.725Z,15.60
2019-06-08T22:25:35.000Z,15.50
2019-06-08T22:30:43.169Z,15.40
2019-06-08T22:35:58.769Z,15.50
2019-06-08T22:41:04.434Z,15.30
2019-06-08T22:46:17.806Z,15.30
2019-06-08T22:51:23.016Z,15.20
2019-06-08T22:56:27.834Z,15.00
2019-06-08T23:01:32.956Z,15.00
2019-06-08T23:06:38.632Z,15.10
2019-06-08T23:11:43.883Z,14.90
2019-06-08T23:16:48.772Z,14.90
2019-06-08T23:21:53.782Z,14.70
2019-06-08T23:26:59.951Z,14.70
2019-06-08T23:32:06.685Z,14.60
2019-06-08T23:37:12.837Z,14.70
2019-06-08T23:42:18.945Z,14.50
2019-06-08T23:47:24.790Z,14.40
2019-06-08T23:52:29.981Z,14.40
2019-06-08T23:57:35.094Z,14.50
